createdAt,value
2019-02-21T00:01:41.947Z,7.13
2019-02-21T00:04:11.814Z,7.33
2019-02-21T00:06:46.430Z,8.53
2019-02-21T00:09:21.193Z,8.13
2019-02-21T00:11:52.853Z,7.77
2019-02-21T00:14:22.739Z,9.77
2019-02-21T00:16:52.606Z,7.63
2019-02-21T00:19:22.382Z,8.23
2019-02-21T00:21:52.143Z,7.27
2019-02-21T00:24:32.083Z,7.13
2019-02-21T00:27:04.253Z,7.50
2019-02-21T00:29:37.424Z,7.37
2019-02-21T00:32:12.742Z,6.73
2019-02-21T00:34:47.619Z,7.33
2019-02-21T00:37:23.062Z,5.80
2019-02-21T00:39:55.296Z,7.53
2019-02-21T00:42:28.287Z,6.77
2019-02-21T00:44:59.802Z,5.97
2019-02-21T00:47:31.204Z,6.93
2019-02-21T00:50:00.923Z,6.83
2019-02-21T00:52:31.447Z,6.90
2019-02-21T00:55:03.186Z,7.70
2019-02-21T00:57:35.550Z,7.50
2019-02-21T01:00:05.693Z,7.30
2019-02-21T01:02:38.756Z,7.10
2019-02-21T01:05:08.618Z,6.37
2019-02-21T01:07:38.392Z,6.60
2019-02-21T01:10:09.131Z,7.53
2019-02-21T01:12:47.122Z,6.27
2019-02-21T01:15:18.935Z,5.17
2019-02-21T01:18:00.578Z,7.40
2019-02-21T01:20:31.158Z,7.07
2019-02-21T01:23:02.665Z,7.13
2019-02-21T01:25:33.336Z,6.83
2019-02-21T01:28:05.528Z,6.60
2019-02-21T01:30:36.589Z,7.33
2019-02-21T01:33:06.303Z,6.07
2019-02-21T01:35:36.073Z,6.57
2019-02-21T01:38:05.801Z,7.03
2019-02-21T01:40:35.583Z,7.30
2019-02-21T01:43:05.844Z,7.80
2019-02-21T01:45:35.545Z,9.77
2019-02-21T01:48:05.318Z,6.93
2019-02-21T01:50:36.027Z,7.40
2019-02-21T01:53:05.786Z,7.83
2019-02-21T01:55:35.503Z,7.97
2019-02-21T01:58:05.983Z,10.50
2019-02-21T02:00:35.760Z,7.73
2019-02-21T02:03:05.534Z,8.73
2019-02-21T02:05:35.297Z,7.87
2019-02-21T02:08:05.176Z,7.27
2019-02-21T02:10:34.862Z,7.90
2019-02-21T02:13:04.708Z,7.40
2019-02-21T02:15:34.479Z,8.70
2019-02-21T02:18:04.330Z,9.30
2019-02-21T02:20:39.772Z,8.80
2019-02-21T02:23:11.222Z,8.43
2019-02-21T02:25:43.275Z,9.77
2019-02-21T02:28:13.051Z,9.03
2019-02-21T02:30:42.903Z,8.20
2019-02-21T02:33:12.694Z,8.63
2019-02-21T02:35:44.184Z,10.70
2019-02-21T02:38:13.906Z,10.30
2019-02-21T02:40:44.749Z,10.33
2019-02-21T02:43:14.504Z,10.53
2019-02-21T02:45:44.270Z,10.43
2019-02-21T02:48:16.414Z,9.87
2019-02-21T02:50:55.119Z,11.47
2019-02-21T02:53:25.438Z,11.87
2019-02-21T02:55:57.810Z,12.43
2019-02-21T02:58:27.606Z,11.93
2019-02-21T03:00:57.450Z,14.17
2019-02-21T03:03:27.174Z,16.20
2019-02-21T03:05:56.970Z,11.37
2019-02-21T03:08:26.675Z,13.43
2019-02-21T03:10:56.415Z,14.87
2019-02-21T03:13:26.289Z,14.97
2019-02-21T03:15:56.163Z,16.77
2019-02-21T03:18:25.982Z,14.97
2019-02-21T03:20:55.704Z,14.40
2019-02-21T03:23:27.305Z,15.03
2019-02-21T03:25:58.250Z,15.60
2019-02-21T03:28:31.319Z,15.57
2019-02-21T03:31:01.070Z,15.70
2019-02-21T03:33:33.911Z,19.00
2019-02-21T03:36:03.791Z,16.17
2019-02-21T03:38:35.046Z,14.50
2019-02-21T03:41:05.214Z,16.50
2019-02-21T03:43:36.027Z,17.07
2019-02-21T03:46:05.951Z,16.27
2019-02-21T03:48:40.447Z,16.00
2019-02-21T03:51:10.129Z,14.63
2019-02-21T03:53:42.321Z,15.13
2019-02-21T03:56:14.575Z,15.23
2019-02-21T03:58:44.754Z,13.17
2019-02-21T04:01:14.586Z,12.83
2019-02-21T04:03:45.390Z,12.57
2019-02-21T04:06:16.295Z,12.87
2019-02-21T04:08:54.512Z,12.40
2019-02-21T04:11:24.366Z,12.93
2019-02-21T04:13:56.610Z,10.73
2019-02-21T04:16:26.427Z,11.87
2019-02-21T04:19:01.518Z,9.90
2019-02-21T04:21:33.546Z,9.97
2019-02-21T04:24:03.388Z,10.80
2019-02-21T04:26:33.155Z,9.67
2019-02-21T04:29:02.943Z,11.10
2019-02-21T04:31:35.020Z,10.37
2019-02-21T04:34:07.810Z,10.37
2019-02-21T04:36:37.501Z,9.93
2019-02-21T04:39:07.278Z,9.40
2019-02-21T04:41:38.299Z,10.27
2019-02-21T04:44:08.107Z,10.90
2019-02-21T04:46:40.702Z,9.87
2019-02-21T04:49:10.418Z,11.67
2019-02-21T04:51:40.146Z,10.17
2019-02-21T04:54:12.404Z,12.03
2019-02-21T04:56:42.266Z,10.87
2019-02-21T04:59:12.046Z,10.90
2019-02-21T05:01:41.911Z,11.90
2019-02-21T05:04:17.138Z,11.77
2019-02-21T05:06:46.923Z,11.90
2019-02-21T05:09:16.629Z,11.23
2019-02-21T05:11:48.262Z,14.73
2019-02-21T05:14:18.746Z,12.93
2019-02-21T05:16:48.448Z,12.57
2019-02-21T05:19:18.211Z,12.37
2019-02-21T05:21:49.084Z,13.33
2019-02-21T05:24:18.971Z,12.60
2019-02-21T05:26:52.579Z,14.00
2019-02-21T05:29:24.175Z,13.27
2019-02-21T05:32:07.792Z,13.83
2019-02-21T05:34:50.355Z,14.53
2019-02-21T05:37:42.442Z,13.37
2019-02-21T05:40:43.559Z,12.93
2019-02-21T05:43:48.198Z,13.10
2019-02-21T05:46:43.025Z,15.00
2019-02-21T05:49:30.126Z,14.43
2019-02-21T05:52:10.365Z,13.67
2019-02-21T05:54:57.347Z,13.97
2019-02-21T05:57:42.115Z,15.10
2019-02-21T06:00:37.432Z,13.97
2019-02-21T06:03:53.454Z,15.50
2019-02-21T06:06:36.800Z,14.60
2019-02-21T06:09:13.470Z,12.37
2019-02-21T06:12:00.931Z,13.57
2019-02-21T06:14:45.178Z,13.07
2019-02-21T06:17:22.940Z,12.93
2019-02-21T06:20:17.802Z,15.67
2019-02-21T06:23:01.967Z,14.93
2019-02-21T06:25:51.423Z,15.60
2019-02-21T06:28:26.558Z,14.97
2019-02-21T06:31:00.265Z,14.47
2019-02-21T06:33:30.063Z,15.17
2019-02-21T06:36:03.224Z,16.47
2019-02-21T06:38:34.548Z,13.27
2019-02-21T06:41:04.264Z,15.07
2019-02-21T06:43:33.982Z,13.90
2019-02-21T06:46:03.693Z,14.63
2019-02-21T06:48:35.033Z,16.47
2019-02-21T06:51:04.864Z,15.83
2019-02-21T06:53:35.850Z,15.13
2019-02-21T06:56:10.194Z,15.50
2019-02-21T06:58:42.065Z,14.87
2019-02-21T07:01:12.718Z,15.27
2019-02-21T07:03:42.428Z,15.83
2019-02-21T07:06:19.014Z,14.63
2019-02-21T07:08:50.054Z,14.70
2019-02-21T07:11:19.810Z,17.97
2019-02-21T07:13:49.607Z,17.23
2019-02-21T07:16:21.156Z,15.40
2019-02-21T07:18:50.859Z,14.87
2019-02-21T07:21:27.415Z,16.50
2019-02-21T07:24:00.024Z,16.00
2019-02-21T07:26:32.039Z,16.63
2019-02-21T07:29:01.809Z,17.63
2019-02-21T07:31:32.593Z,15.40
2019-02-21T07:34:02.566Z,16.27
2019-02-21T07:36:33.722Z,16.30
2019-02-21T07:39:17.002Z,18.33
2019-02-21T07:41:38.446Z,18.10
2019-02-21T07:44:13.944Z,18.77
2019-02-21T07:46:46.182Z,17.83
2019-02-21T07:49:15.132Z,17.50
2019-02-21T07:51:44.893Z,17.10
2019-02-21T07:54:14.584Z,17.77
2019-02-21T07:56:44.334Z,20.40
2019-02-21T07:59:15.931Z,19.27
2019-02-21T08:01:57.687Z,18.77
2019-02-21T08:04:28.971Z,18.77
2019-02-21T08:06:58.682Z,17.97
2019-02-21T08:09:33.430Z,20.43
2019-02-21T08:12:08.142Z,19.77
2019-02-21T08:14:38.038Z,18.57
2019-02-21T08:17:12.397Z,20.77
2019-02-21T08:19:46.791Z,20.10
2019-02-21T08:22:16.527Z,16.53
2019-02-21T08:24:46.302Z,16.63
2019-02-21T08:27:17.648Z,18.83
2019-02-21T08:29:47.451Z,17.07
2019-02-21T08:32:20.224Z,17.63
2019-02-21T08:34:55.554Z,21.47
2019-02-21T08:37:25.373Z,17.63
2019-02-21T08:40:02.124Z,16.93
2019-02-21T08:42:34.039Z,16.47
2019-02-21T08:45:08.732Z,16.27
2019-02-21T08:47:38.435Z,17.33
2019-02-21T08:50:08.411Z,17.17
2019-02-21T08:52:38.139Z,16.30
2019-02-21T08:55:09.579Z,16.60
2019-02-21T08:57:39.313Z,16.50
2019-02-21T09:00:12.056Z,16.20
2019-02-21T09:02:47.210Z,17.73
2019-02-21T09:05:20.182Z,17.90
2019-02-21T09:07:52.668Z,19.13
2019-02-21T09:10:22.550Z,16.63
2019-02-21T09:12:53.530Z,16.50
2019-02-21T09:15:25.333Z,17.40
2019-02-21T09:17:58.183Z,17.47
2019-02-21T09:20:29.180Z,18.63
2019-02-21T09:23:07.017Z,19.87
2019-02-21T09:25:42.691Z,17.27
2019-02-21T09:28:15.965Z,17.03
2019-02-21T09:30:47.934Z,16.37
2019-02-21T09:33:21.302Z,15.27
2019-02-21T09:35:56.543Z,18.07
2019-02-21T09:38:25.525Z,16.20
2019-02-21T09:40:56.770Z,16.93
2019-02-21T09:43:26.515Z,16.00
2019-02-21T09:45:59.375Z,18.67
2019-02-21T09:48:30.429Z,18.83
2019-02-21T09:51:02.097Z,17.83
2019-02-21T09:53:32.026Z,20.20
2019-02-21T09:56:02.297Z,18.20
2019-02-21T09:58:37.579Z,20.10
2019-02-21T10:01:08.731Z,21.03
2019-02-21T10:03:44.092Z,21.60
2019-02-21T10:06:14.818Z,19.43
2019-02-21T10:08:44.849Z,19.03
2019-02-21T10:11:17.505Z,19.07
2019-02-21T10:13:47.933Z,20.93
2019-02-21T10:16:17.820Z,18.83
2019-02-21T10:18:52.630Z,17.83
2019-02-21T10:21:22.975Z,19.40
2019-02-21T10:23:52.847Z,18.00
2019-02-21T10:26:23.804Z,19.93
2019-02-21T10:28:58.501Z,18.33
2019-02-21T10:31:31.559Z,18.53
2019-02-21T10:34:01.333Z,15.17
2019-02-21T10:36:31.147Z,17.37
2019-02-21T10:39:07.192Z,16.47
2019-02-21T10:41:38.125Z,19.30
2019-02-21T10:44:08.693Z,18.43
2019-02-21T10:46:38.827Z,17.47
2019-02-21T10:49:11.172Z,16.23
2019-02-21T10:51:42.263Z,17.57
2019-02-21T10:54:15.377Z,19.30
2019-02-21T10:56:47.379Z,19.47
2019-02-21T10:59:18.838Z,18.43
2019-02-21T11:01:51.401Z,18.70
2019-02-21T11:04:22.521Z,19.53
2019-02-21T11:06:56.354Z,15.93
2019-02-21T11:09:26.224Z,14.70
2019-02-21T11:11:56.942Z,14.60
2019-02-21T11:14:29.069Z,14.47
2019-02-21T11:16:58.890Z,13.83
2019-02-21T11:19:28.779Z,14.43
2019-02-21T11:22:00.561Z,14.93
2019-02-21T11:24:35.243Z,13.77
2019-02-21T11:27:08.452Z,14.30
2019-02-21T11:29:38.306Z,13.73
2019-02-21T11:32:09.282Z,13.40
2019-02-21T11:34:39.062Z,13.43
2019-02-21T11:37:09.067Z,13.80
2019-02-21T11:39:40.856Z,13.73
2019-02-21T11:42:12.447Z,13.33
2019-02-21T11:44:44.015Z,13.60
2019-02-21T11:47:15.054Z,13.20
2019-02-21T11:49:45.919Z,12.73
2019-02-21T11:52:15.824Z,13.70
2019-02-21T11:54:47.946Z,13.80
2019-02-21T11:57:19.497Z,14.33
2019-02-21T11:59:49.725Z,13.73
2019-02-21T12:02:19.925Z,15.20
2019-02-21T12:04:51.871Z,17.00
2019-02-21T12:07:29.692Z,15.67
2019-02-21T12:10:00.789Z,17.73
2019-02-21T12:12:31.797Z,18.43
2019-02-21T12:15:03.017Z,16.93
2019-02-21T12:17:33.499Z,17.83
2019-02-21T12:20:04.125Z,17.27
2019-02-21T12:22:36.178Z,19.33
2019-02-21T12:25:08.471Z,19.07
2019-02-21T12:27:40.839Z,18.43
2019-02-21T12:30:17.879Z,18.87
2019-02-21T12:32:47.859Z,18.10
2019-02-21T12:35:28.728Z,22.20
2019-02-21T12:37:49.500Z,19.03
2019-02-21T12:40:20.304Z,17.57
2019-02-21T12:42:50.312Z,17.97
2019-02-21T12:45:20.374Z,17.23
2019-02-21T12:47:56.059Z,17.03
2019-02-21T12:50:26.170Z,16.47
2019-02-21T12:52:55.983Z,19.97
2019-02-21T12:55:31.726Z,17.77
2019-02-21T12:58:00.663Z,20.60
2019-02-21T13:00:31.518Z,19.27
2019-02-21T13:03:01.338Z,19.87
2019-02-21T13:05:40.358Z,18.83
2019-02-21T13:08:07.298Z,23.27
2019-02-21T13:10:40.821Z,18.93
2019-02-21T13:13:11.876Z,21.07
2019-02-21T13:15:41.615Z,20.27
2019-02-21T13:18:15.819Z,18.53
2019-02-21T13:20:45.334Z,20.80
2019-02-21T13:23:15.158Z,19.83
2019-02-21T13:25:48.130Z,20.47
2019-02-21T13:28:18.295Z,23.37
2019-02-21T13:30:48.294Z,20.40
2019-02-21T13:33:19.908Z,20.30
2019-02-21T13:35:53.024Z,19.63
2019-02-21T13:38:23.524Z,24.85
2019-02-21T13:40:59.381Z,21.10
2019-02-21T13:43:35.958Z,20.20
2019-02-21T13:46:09.497Z,24.75
2019-02-21T13:48:44.310Z,24.23
2019-02-21T13:51:14.622Z,21.80
2019-02-21T13:53:44.538Z,21.63
2019-02-21T13:56:14.441Z,18.93
2019-02-21T13:58:46.026Z,20.03
2019-02-21T14:01:15.830Z,19.37
2019-02-21T14:03:53.523Z,19.67
2019-02-21T14:06:24.548Z,20.63
2019-02-21T14:08:57.191Z,22.27
2019-02-21T14:11:30.824Z,20.63
2019-02-21T14:14:03.929Z,21.37
2019-02-21T14:16:43.788Z,20.57
2019-02-21T14:19:06.307Z,21.40
2019-02-21T14:21:38.288Z,20.77
2019-02-21T14:24:10.432Z,19.70
2019-02-21T14:26:43.227Z,21.23
2019-02-21T14:29:13.016Z,21.10
2019-02-21T14:31:42.896Z,21.10
2019-02-21T14:34:17.886Z,19.13
2019-02-21T14:36:47.705Z,19.73
2019-02-21T14:39:18.111Z,20.53
2019-02-21T14:41:49.738Z,18.17
2019-02-21T14:44:19.563Z,18.63
2019-02-21T14:46:50.344Z,18.50
2019-02-21T14:49:20.323Z,16.30
2019-02-21T14:51:54.099Z,15.60
2019-02-21T14:54:23.816Z,17.37
2019-02-21T14:56:53.574Z,17.43
2019-02-21T14:59:23.368Z,18.77
2019-02-21T15:01:54.734Z,17.03
2019-02-21T15:04:25.580Z,16.50
2019-02-21T15:06:59.399Z,15.70
2019-02-21T15:09:30.834Z,17.23
2019-02-21T15:12:01.875Z,14.97
2019-02-21T15:14:31.575Z,17.90
2019-02-21T15:17:04.744Z,16.87
2019-02-21T15:19:36.010Z,17.63
2019-02-21T15:22:05.731Z,17.73
2019-02-21T15:24:35.516Z,17.77
2019-02-21T15:27:08.751Z,14.10
2019-02-21T15:29:41.828Z,17.43
2019-02-21T15:32:14.152Z,15.93
2019-02-21T15:34:43.100Z,16.77
2019-02-21T15:37:19.537Z,16.17
2019-02-21T15:39:49.291Z,17.33
2019-02-21T15:42:19.791Z,17.03
2019-02-21T15:44:49.614Z,19.30
2019-02-21T15:47:20.784Z,18.23
2019-02-21T15:49:50.795Z,19.27
2019-02-21T15:52:22.714Z,23.35
2019-02-21T15:54:54.709Z,20.70
2019-02-21T15:57:24.706Z,18.97
2019-02-21T15:59:54.539Z,18.40
2019-02-21T16:02:25.302Z,19.63
2019-02-21T16:05:00.004Z,18.23
2019-02-21T16:07:31.943Z,17.87
2019-02-21T16:10:02.919Z,17.83
2019-02-21T16:12:34.394Z,19.73
2019-02-21T16:15:11.590Z,19.83
2019-02-21T16:17:44.312Z,20.70
2019-02-21T16:20:14.799Z,19.97
2019-02-21T16:22:48.647Z,21.33
2019-02-21T16:25:25.226Z,18.67
2019-02-21T16:28:00.711Z,20.83
2019-02-21T16:30:30.937Z,19.13
2019-02-21T16:33:00.655Z,20.87
2019-02-21T16:35:38.650Z,20.80
2019-02-21T16:38:08.350Z,20.37
2019-02-21T16:40:38.231Z,19.63
2019-02-21T16:43:08.012Z,19.43
2019-02-21T16:45:46.363Z,20.93
2019-02-21T16:48:13.705Z,18.30
2019-02-21T16:50:44.031Z,20.17
2019-02-21T16:53:14.064Z,17.77
2019-02-21T16:55:45.537Z,17.70
2019-02-21T16:58:15.307Z,17.80
2019-02-21T17:00:53.866Z,17.43
2019-02-21T17:03:22.047Z,17.40
2019-02-21T17:05:51.783Z,16.00
2019-02-21T17:08:23.354Z,16.57
2019-02-21T17:10:54.325Z,15.90
2019-02-21T17:13:25.643Z,18.40
2019-02-21T17:15:58.567Z,16.13
2019-02-21T17:18:28.853Z,16.87
2019-02-21T17:21:04.617Z,16.03
2019-02-21T17:23:36.851Z,17.80
2019-02-21T17:26:08.054Z,18.30
2019-02-21T17:28:37.850Z,16.67
2019-02-21T17:31:08.775Z,15.77
2019-02-21T17:33:39.819Z,18.50
2019-02-21T17:36:14.666Z,17.93
2019-02-21T17:38:46.248Z,20.45
2019-02-21T17:41:15.946Z,19.23
2019-02-21T17:43:49.152Z,18.77
2019-02-21T17:46:20.702Z,17.43
2019-02-21T17:48:53.247Z,17.90
2019-02-21T17:51:27.364Z,16.67
2019-02-21T17:53:59.627Z,18.53
2019-02-21T17:56:30.820Z,15.67
2019-02-21T17:59:00.589Z,16.00
2019-02-21T18:01:30.355Z,18.97
2019-02-21T18:04:03.102Z,16.70
2019-02-21T18:06:33.235Z,17.47
2019-02-21T18:09:04.738Z,18.07
2019-02-21T18:11:36.352Z,14.70
2019-02-21T18:14:06.703Z,18.50
2019-02-21T18:16:38.470Z,15.77
2019-02-21T18:19:08.255Z,16.83
2019-02-21T18:21:39.677Z,17.50
2019-02-21T18:24:14.179Z,16.13
2019-02-21T18:26:46.202Z,16.53
2019-02-21T18:29:18.122Z,15.50
2019-02-21T18:31:47.886Z,17.07
2019-02-21T18:34:17.674Z,18.23
2019-02-21T18:36:49.299Z,22.50
2019-02-21T18:39:22.339Z,19.13
2019-02-21T18:41:56.122Z,18.37
2019-02-21T18:44:26.414Z,16.60
2019-02-21T18:46:59.354Z,17.17
2019-02-21T18:49:29.267Z,17.10
2019-02-21T18:51:58.955Z,16.20
2019-02-21T18:54:28.676Z,16.70
2019-02-21T18:56:59.676Z,17.97
2019-02-21T18:59:32.026Z,16.90
2019-02-21T19:02:03.143Z,17.87
2019-02-21T19:04:35.201Z,17.77
2019-02-21T19:07:05.093Z,18.27
2019-02-21T19:09:35.135Z,18.20
2019-02-21T19:12:04.951Z,18.77
2019-02-21T19:14:34.750Z,16.70
2019-02-21T19:17:05.050Z,20.10
2019-02-21T19:19:34.882Z,20.07
2019-02-21T19:22:05.935Z,18.93
2019-02-21T19:24:37.586Z,19.30
2019-02-21T19:27:13.509Z,17.53
2019-02-21T19:29:44.258Z,17.83
2019-02-21T19:32:14.031Z,17.60
2019-02-21T19:34:43.843Z,16.90
2019-02-21T19:37:14.776Z,18.40
2019-02-21T19:39:44.911Z,19.63
2019-02-21T19:42:14.687Z,19.43
2019-02-21T19:44:44.455Z,18.93
2019-02-21T19:47:14.163Z,15.87
2019-02-21T19:49:44.107Z,18.23
2019-02-21T19:52:13.957Z,17.37
2019-02-21T19:54:46.973Z,17.60
2019-02-21T19:57:17.886Z,17.63
2019-02-21T19:59:51.963Z,24.87
2019-02-21T20:02:24.132Z,17.37
2019-02-21T20:05:06.561Z,19.67
2019-02-21T20:07:36.590Z,17.40
2019-02-21T20:10:08.087Z,15.73
2019-02-21T20:12:37.941Z,18.33
2019-02-21T20:15:08.620Z,18.93
2019-02-21T20:17:38.737Z,18.47
2019-02-21T20:20:11.819Z,18.70
2019-02-21T20:22:41.610Z,18.03
2019-02-21T20:25:11.383Z,18.33
2019-02-21T20:27:41.166Z,19.83
2019-02-21T20:30:13.654Z,20.40
2019-02-21T20:32:43.890Z,19.13
2019-02-21T20:35:13.796Z,18.70
2019-02-21T20:37:43.657Z,20.97
2019-02-21T20:40:15.078Z,17.43
2019-02-21T20:42:44.894Z,20.60
2019-02-21T20:45:15.198Z,18.23
2019-02-21T20:47:45.150Z,17.40
2019-02-21T20:50:15.030Z,17.40
2019-02-21T20:52:49.867Z,19.93
2019-02-21T20:55:22.785Z,14.90
2019-02-21T20:57:57.926Z,16.37
2019-02-21T21:00:27.819Z,16.67
2019-02-21T21:02:59.195Z,18.43
2019-02-21T21:05:32.207Z,15.67
2019-02-21T21:08:02.158Z,21.07
2019-02-21T21:10:34.514Z,17.13
2019-02-21T21:13:09.090Z,18.30
2019-02-21T21:15:39.247Z,18.07
2019-02-21T21:18:12.166Z,18.23
2019-02-21T21:20:44.226Z,19.30
2019-02-21T21:23:14.002Z,18.80
2019-02-21T21:25:44.175Z,19.10
2019-02-21T21:28:14.058Z,17.73
2019-02-21T21:30:43.939Z,17.80
2019-02-21T21:33:17.964Z,18.17
2019-02-21T21:35:47.759Z,17.13
2019-02-21T21:38:24.191Z,18.53
2019-02-21T21:40:49.470Z,19.13
2019-02-21T21:43:19.743Z,18.60
2019-02-21T21:46:07.695Z,17.60
2019-02-21T21:48:37.805Z,19.37
2019-02-21T21:51:11.103Z,18.30
2019-02-21T21:53:40.896Z,17.13
2019-02-21T21:56:10.678Z,18.07
2019-02-21T21:58:40.749Z,17.63
2019-02-21T22:01:10.553Z,17.43
2019-02-21T22:03:40.426Z,20.17
2019-02-21T22:06:10.376Z,19.63
2019-02-21T22:08:40.062Z,18.33
2019-02-21T22:11:11.222Z,17.60
2019-02-21T22:13:40.897Z,21.33
2019-02-21T22:16:10.611Z,19.80
2019-02-21T22:18:42.730Z,18.53
2019-02-21T22:21:12.414Z,19.73
2019-02-21T22:23:42.106Z,18.87
2019-02-21T22:26:11.883Z,21.03
2019-02-21T22:28:44.410Z,18.97
2019-02-21T22:31:14.179Z,19.00
2019-02-21T22:33:48.986Z,19.43
2019-02-21T22:36:19.590Z,19.10
2019-02-21T22:38:51.942Z,22.10
2019-02-21T22:41:21.758Z,21.47
2019-02-21T22:43:53.400Z,21.60
2019-02-21T22:46:23.341Z,21.87
2019-02-21T22:48:54.447Z,19.80
2019-02-21T22:51:26.659Z,19.63
2019-02-21T22:53:56.632Z,20.10
2019-02-21T22:56:26.405Z,18.93
2019-02-21T22:58:56.094Z,20.63
2019-02-21T23:01:32.566Z,19.73
2019-02-21T23:04:24.831Z,22.37
2019-02-21T23:07:25.545Z,19.57
2019-02-21T23:09:55.348Z,19.10
2019-02-21T23:12:25.135Z,19.57
2019-02-21T23:14:56.210Z,18.27
2019-02-21T23:17:29.047Z,19.23
2019-02-21T23:20:07.082Z,22.73
2019-02-21T23:22:36.859Z,18.37
2019-02-21T23:25:09.610Z,20.33
2019-02-21T23:27:39.418Z,17.67
2019-02-21T23:30:13.410Z,19.03
2019-02-21T23:32:43.179Z,18.20
2019-02-21T23:35:23.429Z,19.20
2019-02-21T23:37:53.271Z,21.57
2019-02-21T23:40:24.246Z,20.87
2019-02-21T23:42:54.212Z,21.33
2019-02-21T23:45:24.399Z,21.00
2019-02-21T23:47:54.227Z,21.90
2019-02-21T23:50:23.939Z,20.70
2019-02-21T23:52:53.713Z,21.40
2019-02-21T23:55:23.536Z,21.53
2019-02-21T23:57:53.341Z,21.43
